Time;durP1;ratioP1;P1;durP2;ratioP2;P2;SDS_P1;SDS_P2;PMS_P1;PMS_P2;Temp;Humidity;BMP_temperature;BMP_pressure;BME280_temperature;BME280_humidity;BME280_pressure;Samples;Min_cycle;Max_cycle;Signal;HPM_P1;HPM_P2
2022/09/28 00:01:24;;;;;;;377.37;163.50;;;;;;;;;;4994560;28;20181;-53
2022/09/28 00:03:53;;;;;;;406.87;177.37;;;;;;;;;;5000820;28;20194;-53
2022/09/28 00:06:22;;;;;;;358.73;155.23;;;;;;;;;;4986889;28;20501;-53
2022/09/28 00:08:51;;;;;;;332.60;145.20;;;;;;;;;;5001422;28;20692;-53
2022/09/28 00:11:17;;;;;;;408.80;177.50;;;;;;;;;;4995900;28;20638;-53
2022/09/28 00:13:44;;;;;;;379.30;166.70;;;;;;;;;;4990979;28;20201;-53
2022/09/28 00:16:12;;;;;;;351.07;152.73;;;;;;;;;;4993753;28;20196;-53
2022/09/28 00:18:39;;;;;;;391.43;170.13;;;;;;;;;;4995910;28;20605;-53
2022/09/28 00:21:10;;;;;;;342.53;147.33;;;;;;;;;;4997139;28;20190;-53
2022/09/28 00:24:11;;;;;;;363.97;160.37;;;;;;;;;;5000693;28;20191;-53
2022/09/28 00:26:26;;;;;;;311.50;136.47;;;;;;;;;;5000016;28;20247;-53
2022/09/28 00:28:53;;;;;;;333.07;145.97;;;;;;;;;;5002334;28;20177;-53
2022/09/28 00:31:19;;;;;;;360.83;159.97;;;;;;;;;;4994902;28;20661;-53
2022/09/28 00:33:45;;;;;;;412.87;178.40;;;;;;;;;;5012699;28;20227;-53
2022/09/28 00:36:10;;;;;;;377.20;166.83;;;;;;;;;;4997805;28;20210;-53
2022/09/28 00:38:39;;;;;;;316.33;139.70;;;;;;;;;;4996596;28;20205;-52
2022/09/28 00:41:05;;;;;;;335.63;149.27;;;;;;;;;;4995000;28;20433;-53
2022/09/28 00:43:31;;;;;;;352.30;153.53;;;;;;;;;;4999209;28;20766;-53
2022/09/28 00:46:03;;;;;;;357.03;155.50;;;;;;;;;;5000982;28;20193;-54
2022/09/28 00:48:32;;;;;;;343.80;150.97;;;;;;;;;;5000836;28;20194;-53
2022/09/28 00:50:59;;;;;;;373.37;163.33;;;;;;;;;;4996419;28;20559;-53
2022/09/28 00:53:26;;;;;;;317.63;137.27;;;;;;;;;;4993993;28;20549;-53
2022/09/28 00:55:54;;;;;;;398.63;173.37;;;;;;;;;;4988046;28;20212;-53
2022/09/28 00:58:24;;;;;;;403.37;175.27;;;;;;;;;;4988474;28;21810;-53
2022/09/28 01:00:50;;;;;;;383.07;168.40;;;;;;;;;;4988090;28;20610;-53
2022/09/28 01:03:17;;;;;;;364.00;158.57;;;;;;;;;;4995135;28;22519;-53
2022/09/28 01:05:43;;;;;;;386.10;168.93;;;;;;;;;;4991103;28;20209;-53
2022/09/28 01:08:09;;;;;;;370.07;160.67;;;;;;;;;;4986405;28;20196;-53
2022/09/28 01:10:35;;;;;;;424.67;188.00;;;;;;;;;;4996330;28;20185;-53
2022/09/28 01:13:01;;;;;;;368.20;160.50;;;;;;;;;;4990252;28;20266;-52
2022/09/28 01:15:28;;;;;;;422.93;184.97;;;;;;;;;;4989971;28;20646;-53
2022/09/28 01:18:03;;;;;;;401.27;175.27;;;;;;;;;;4993799;28;21068;-53
2022/09/28 01:20:32;;;;;;;386.03;167.13;;;;;;;;;;4994077;28;20683;-53
2022/09/28 01:23:05;;;;;;;373.97;163.50;;;;;;;;;;5001914;28;20196;-53
2022/09/28 01:25:45;;;;;;;378.17;165.03;;;;;;;;;;4994368;28;20212;-53
2022/09/28 01:28:15;;;;;;;434.57;187.67;;;;;;;;;;4987476;28;20192;-53
2022/09/28 01:30:43;;;;;;;356.70;152.70;;;;;;;;;;4989564;28;20692;-53
2022/09/28 01:33:12;;;;;;;371.73;163.60;;;;;;;;;;4991186;28;20424;-53
2022/09/28 01:35:42;;;;;;;412.23;178.77;;;;;;;;;;4993367;28;20219;-53
2022/09/28 01:38:14;;;;;;;386.70;165.10;;;;;;;;;;4991655;28;21893;-53
2022/09/28 01:40:40;;;;;;;416.63;177.53;;;;;;;;;;5002005;28;20169;-53
2022/09/28 01:43:09;;;;;;;390.13;170.90;;;;;;;;;;4989380;28;20189;-53
2022/09/28 01:45:41;;;;;;;416.87;184.33;;;;;;;;;;4986394;28;20197;-53
2022/09/28 01:48:09;;;;;;;348.87;149.50;;;;;;;;;;4988153;28;20268;-53
2022/09/28 01:50:37;;;;;;;393.77;169.77;;;;;;;;;;4994133;28;20189;-53
2022/09/28 01:53:19;;;;;;;333.40;144.40;;;;;;;;;;5000426;28;20192;-53
2022/09/28 01:55:47;;;;;;;370.43;159.63;;;;;;;;;;5003253;28;20755;-53
2022/09/28 01:58:16;;;;;;;386.03;166.73;;;;;;;;;;5003215;28;20296;-53
2022/09/28 02:00:45;;;;;;;325.27;140.47;;;;;;;;;;5002081;28;20634;-52
2022/09/28 02:03:15;;;;;;;358.67;155.90;;;;;;;;;;5011123;28;20661;-52
2022/09/28 02:05:43;;;;;;;373.50;165.23;;;;;;;;;;4998337;28;20220;-52
2022/09/28 02:08:19;;;;;;;393.30;169.70;;;;;;;;;;4994156;28;20739;-53
2022/09/28 02:11:10;;;;;;;340.00;147.83;;;;;;;;;;4997917;28;20545;-53
2022/09/28 02:13:42;;;;;;;375.33;162.13;;;;;;;;;;5002730;28;20185;-53
2022/09/28 02:16:17;;;;;;;426.23;183.30;;;;;;;;;;4992158;28;20607;-53
2022/09/28 02:18:44;;;;;;;369.30;160.00;;;;;;;;;;4995658;28;20231;-53
2022/09/28 02:21:15;;;;;;;383.00;164.10;;;;;;;;;;4995798;28;20582;-53
2022/09/28 02:23:44;;;;;;;327.20;140.97;;;;;;;;;;5000862;28;20198;-53
2022/09/28 02:26:11;;;;;;;381.97;163.67;;;;;;;;;;5002858;28;20209;-53
2022/09/28 02:28:37;;;;;;;404.07;172.90;;;;;;;;;;4996313;28;20186;-53
2022/09/28 02:31:03;;;;;;;341.30;147.60;;;;;;;;;;5001316;28;20199;-53
2022/09/28 02:33:35;;;;;;;342.90;149.03;;;;;;;;;;5003534;28;20185;-53
2022/09/28 02:36:02;;;;;;;322.33;138.33;;;;;;;;;;5000157;28;20515;-53
2022/09/28 02:38:29;;;;;;;332.13;144.97;;;;;;;;;;5009843;28;20235;-53
2022/09/28 02:41:15;;;;;;;335.53;146.30;;;;;;;;;;5002079;28;20375;-53
2022/09/28 02:43:50;;;;;;;322.77;141.17;;;;;;;;;;4968240;28;20236;-53
2022/09/28 02:46:27;;;;;;;426.53;190.13;;;;;;;;;;4989314;28;20212;-53
2022/09/28 02:49:01;;;;;;;336.50;147.30;;;;;;;;;;5003378;28;20200;-53
2022/09/28 02:51:53;;;;;;;342.87;148.97;;;;;;;;;;4996654;28;20470;-53
2022/09/28 02:54:22;;;;;;;323.57;140.00;;;;;;;;;;4987146;28;20690;-53
2022/09/28 02:56:59;;;;;;;329.87;144.07;;;;;;;;;;4995775;28;20280;-53
2022/09/28 02:59:40;;;;;;;367.70;157.17;;;;;;;;;;4997042;28;20185;-53
2022/09/28 03:02:15;;;;;;;351.67;151.10;;;;;;;;;;4999250;28;20185;-52
2022/09/28 03:04:47;;;;;;;376.50;185.70;;;;;;;;;;5009927;23;20228;-50
2022/09/28 03:07:22;;;;;;;357.13;173.93;;;;;;;;;;4988971;28;20657;-50
2022/09/28 03:10:06;;;;;;;353.77;171.93;;;;;;;;;;4994102;28;20212;-50
2022/09/28 03:12:33;;;;;;;326.87;156.60;;;;;;;;;;4985328;28;20673;-51
2022/09/28 03:15:25;;;;;;;341.43;162.80;;;;;;;;;;4990014;28;20565;-50
2022/09/28 03:17:51;;;;;;;356.10;168.80;;;;;;;;;;4986804;28;20694;-50
2022/09/28 03:20:17;;;;;;;378.73;183.43;;;;;;;;;;4980359;28;20181;-50
2022/09/28 03:22:43;;;;;;;325.47;152.77;;;;;;;;;;4992877;28;20177;-50
2022/09/28 03:25:09;;;;;;;353.00;164.37;;;;;;;;;;4989611;28;20292;-50
2022/09/28 03:27:35;;;;;;;330.43;154.57;;;;;;;;;;4990897;28;20189;-50
2022/09/28 03:30:01;;;;;;;337.47;157.23;;;;;;;;;;4993974;28;20247;-50
2022/09/28 03:32:27;;;;;;;340.37;159.47;;;;;;;;;;4991794;28;20182;-50
2022/09/28 03:34:53;;;;;;;353.47;167.33;;;;;;;;;;4988652;28;20208;-50
2022/09/28 03:37:19;;;;;;;330.10;158.60;;;;;;;;;;4983440;28;20284;-50
2022/09/28 03:39:45;;;;;;;316.37;147.03;;;;;;;;;;4982588;28;20557;-50
2022/09/28 03:42:11;;;;;;;319.73;149.37;;;;;;;;;;4993837;28;20299;-50
2022/09/28 03:44:36;;;;;;;334.23;155.87;;;;;;;;;;4984000;28;20202;-50
2022/09/28 03:47:02;;;;;;;351.40;166.17;;;;;;;;;;4987576;28;20200;-50
2022/09/28 03:49:28;;;;;;;330.20;156.20;;;;;;;;;;4990296;28;20212;-50
2022/09/28 03:51:54;;;;;;;337.20;159.03;;;;;;;;;;4991975;28;20370;-50
2022/09/28 03:54:20;;;;;;;328.90;154.40;;;;;;;;;;4990200;28;20237;-50
2022/09/28 03:56:46;;;;;;;361.43;173.13;;;;;;;;;;4987872;28;20245;-50
2022/09/28 03:59:12;;;;;;;356.03;166.80;;;;;;;;;;4982653;28;20602;-50
2022/09/28 04:01:38;;;;;;;332.67;155.23;;;;;;;;;;4987906;28;20503;-50
2022/09/28 04:04:04;;;;;;;331.70;154.13;;;;;;;;;;4992262;28;20193;-50
2022/09/28 04:06:30;;;;;;;324.93;152.30;;;;;;;;;;4990388;28;20529;-50
2022/09/28 04:08:56;;;;;;;376.53;182.70;;;;;;;;;;4983019;28;20288;-50
2022/09/28 04:11:23;;;;;;;344.97;160.17;;;;;;;;;;4986034;28;20268;-48
2022/09/28 04:13:49;;;;;;;355.10;165.30;;;;;;;;;;4986549;28;20193;-48
2022/09/28 04:16:16;;;;;;;330.53;154.13;;;;;;;;;;4989748;28;20229;-48
2022/09/28 04:18:42;;;;;;;353.83;163.47;;;;;;;;;;4990806;28;20440;-48
2022/09/28 04:21:10;;;;;;;373.43;175.97;;;;;;;;;;4985632;28;20250;-48
2022/09/28 04:23:37;;;;;;;355.17;168.87;;;;;;;;;;4990164;28;20264;-48
2022/09/28 04:26:04;;;;;;;363.13;168.43;;;;;;;;;;4981132;28;20215;-48
2022/09/28 04:31:16;;;;;;;363.30;171.67;;;;;;;;;;4988027;28;20258;-48
2022/09/28 04:33:42;;;;;;;356.77;173.60;;;;;;;;;;4985080;28;20185;-48
2022/09/28 04:36:09;;;;;;;389.83;189.70;;;;;;;;;;4988980;28;20213;-48
2022/09/28 04:38:36;;;;;;;336.70;158.87;;;;;;;;;;4986736;28;20539;-48
2022/09/28 04:41:01;;;;;;;347.77;165.17;;;;;;;;;;4989807;28;20241;-48
2022/09/28 04:43:28;;;;;;;351.63;169.00;;;;;;;;;;4987729;28;20248;-48
2022/09/28 04:45:58;;;;;;;368.87;177.47;;;;;;;;;;4984016;28;20618;-50
2022/09/28 04:48:24;;;;;;;348.40;167.40;;;;;;;;;;4988733;28;20208;-48
2022/09/28 04:50:53;;;;;;;415.57;198.70;;;;;;;;;;4977705;28;20713;-48
2022/09/28 04:53:19;;;;;;;357.67;171.40;;;;;;;;;;4990508;28;20215;-48
2022/09/28 04:55:54;;;;;;;447.00;219.47;;;;;;;;;;4983942;28;20213;-48
2022/09/28 04:58:20;;;;;;;359.47;169.87;;;;;;;;;;4982927;28;20213;-50
2022/09/28 05:00:46;;;;;;;373.37;180.80;;;;;;;;;;4982560;28;21426;-50
2022/09/28 05:03:12;;;;;;;372.67;175.47;;;;;;;;;;4981321;28;20227;-50
2022/09/28 05:05:42;;;;;;;401.53;192.53;;;;;;;;;;4987654;28;20201;-51
2022/09/28 05:08:08;;;;;;;362.37;174.23;;;;;;;;;;4979720;28;20400;-51
2022/09/28 05:10:34;;;;;;;344.43;164.77;;;;;;;;;;4983508;28;20215;-51
2022/09/28 05:13:01;;;;;;;361.23;168.87;;;;;;;;;;4989266;28;20246;-51
2022/09/28 05:15:27;;;;;;;417.27;201.53;;;;;;;;;;4967925;28;20219;-51
2022/09/28 05:17:53;;;;;;;307.90;144.57;;;;;;;;;;4971122;28;20201;-51
2022/09/28 05:20:19;;;;;;;364.43;170.33;;;;;;;;;;4972423;28;20684;-51
2022/09/28 05:22:44;;;;;;;384.63;180.03;;;;;;;;;;4964275;28;20613;-51
2022/09/28 05:25:10;;;;;;;346.87;160.17;;;;;;;;;;4985554;28;20205;-51
2022/09/28 05:27:36;;;;;;;441.27;214.90;;;;;;;;;;4944564;28;20401;-51
2022/09/28 05:30:02;;;;;;;379.77;179.47;;;;;;;;;;4970375;28;20283;-51
2022/09/28 05:32:28;;;;;;;377.67;180.73;;;;;;;;;;4972410;28;20189;-51
2022/09/28 05:34:55;;;;;;;397.57;187.10;;;;;;;;;;4978798;28;20219;-52
2022/09/28 05:37:21;;;;;;;351.33;167.23;;;;;;;;;;4981673;28;20206;-52
2022/09/28 05:39:47;;;;;;;375.57;178.13;;;;;;;;;;4967963;28;20204;-52
2022/09/28 05:42:12;;;;;;;398.23;189.20;;;;;;;;;;4982316;28;21324;-52
2022/09/28 05:44:38;;;;;;;370.13;171.80;;;;;;;;;;4973331;28;20201;-52
2022/09/28 05:47:04;;;;;;;380.70;179.77;;;;;;;;;;4980739;28;20525;-51
2022/09/28 05:49:31;;;;;;;389.13;178.93;;;;;;;;;;4976607;28;20307;-52
2022/09/28 05:51:57;;;;;;;409.77;191.37;;;;;;;;;;4982418;28;20181;-52
2022/09/28 05:54:23;;;;;;;372.13;176.17;;;;;;;;;;4984008;28;20241;-52
2022/09/28 05:56:49;;;;;;;360.13;171.33;;;;;;;;;;4984824;28;20195;-52
2022/09/28 05:59:15;;;;;;;411.60;191.90;;;;;;;;;;4981794;28;20207;-51
2022/09/28 06:01:41;;;;;;;428.03;207.00;;;;;;;;;;4974105;28;20290;-51
2022/09/28 06:04:07;;;;;;;392.63;183.87;;;;;;;;;;4977147;28;20195;-51
2022/09/28 06:06:35;;;;;;;338.40;158.80;;;;;;;;;;4970223;28;20269;-51
2022/09/28 06:09:01;;;;;;;379.93;181.60;;;;;;;;;;4980388;28;20194;-51
2022/09/28 06:11:27;;;;;;;338.97;159.10;;;;;;;;;;4980197;28;20192;-51
2022/09/28 06:13:54;;;;;;;389.00;184.43;;;;;;;;;;4960575;28;20602;-51
2022/09/28 06:16:20;;;;;;;400.10;190.37;;;;;;;;;;4967730;28;20201;-51
2022/09/28 06:18:46;;;;;;;391.43;186.40;;;;;;;;;;4974413;28;20220;-51
2022/09/28 06:21:12;;;;;;;335.80;158.00;;;;;;;;;;4973026;28;20549;-51
2022/09/28 06:23:38;;;;;;;378.90;182.23;;;;;;;;;;4983158;28;20182;-51
2022/09/28 06:26:04;;;;;;;451.40;217.03;;;;;;;;;;4975534;28;20214;-51
2022/09/28 06:28:30;;;;;;;381.10;183.07;;;;;;;;;;4981577;28;20189;-49
2022/09/28 06:30:58;;;;;;;392.77;186.30;;;;;;;;;;4988349;28;20226;-49
2022/09/28 06:33:25;;;;;;;345.27;164.73;;;;;;;;;;4991487;28;20192;-51
2022/09/28 06:35:51;;;;;;;346.07;163.83;;;;;;;;;;4992461;28;20341;-51
2022/09/28 06:38:17;;;;;;;449.10;211.13;;;;;;;;;;4980387;28;20208;-49
2022/09/28 06:40:43;;;;;;;381.63;177.43;;;;;;;;;;4987805;28;20192;-49
2022/09/28 06:43:10;;;;;;;352.60;165.73;;;;;;;;;;4985475;28;20265;-49
2022/09/28 06:45:37;;;;;;;416.17;195.63;;;;;;;;;;4989668;28;20229;-49
2022/09/28 06:48:03;;;;;;;365.73;171.23;;;;;;;;;;5001529;28;20232;-49
2022/09/28 06:50:33;;;;;;;396.70;189.80;;;;;;;;;;4989068;28;20455;-49
2022/09/28 06:52:59;;;;;;;352.17;163.07;;;;;;;;;;4978980;28;20186;-49
2022/09/28 06:55:26;;;;;;;371.93;174.50;;;;;;;;;;4985254;28;20521;-49
2022/09/28 06:57:59;;;;;;;416.53;203.30;;;;;;;;;;4987248;28;20924;-49
2022/09/28 07:00:30;;;;;;;398.07;190.43;;;;;;;;;;4966386;28;20181;-49
2022/09/28 07:02:56;;;;;;;380.27;182.00;;;;;;;;;;4984409;28;20200;-49
2022/09/28 07:05:25;;;;;;;449.37;216.00;;;;;;;;;;4975039;28;20573;-49
2022/09/28 07:07:53;;;;;;;398.07;187.97;;;;;;;;;;4973014;28;20201;-49
2022/09/28 07:10:20;;;;;;;461.83;224.70;;;;;;;;;;4971664;28;20189;-49
2022/09/28 07:12:46;;;;;;;420.97;203.90;;;;;;;;;;4980331;28;20763;-49
2022/09/28 07:15:12;;;;;;;390.47;184.57;;;;;;;;;;4980269;28;20209;-49
2022/09/28 07:17:38;;;;;;;417.97;200.03;;;;;;;;;;4970956;28;20244;-49
2022/09/28 07:20:04;;;;;;;406.93;191.77;;;;;;;;;;4983776;28;20693;-49
2022/09/28 07:22:30;;;;;;;398.03;193.33;;;;;;;;;;4975129;28;20924;-49
2022/09/28 07:24:56;;;;;;;390.40;188.27;;;;;;;;;;4983713;28;20235;-49
2022/09/28 07:27:22;;;;;;;370.90;178.10;;;;;;;;;;4982693;28;20620;-49
2022/09/28 07:29:48;;;;;;;426.20;203.13;;;9.30;99.90;;;;;;4983877;28;20196;-49
2022/09/28 07:32:14;;;;;;;423.67;205.83;;;;;;;;;;4983153;28;20291;-51
2022/09/28 07:34:42;;;;;;;404.77;194.40;;;;;;;;;;4966768;28;20357;-51
2022/09/28 07:37:10;;;;;;;403.03;194.23;;;9.70;99.90;;;;;;4970956;28;20230;-49
2022/09/28 07:41:10;;;;;;;403.47;196.07;;;;;;;;;;4985312;28;20181;-49
2022/09/28 07:42:22;;;;;;;372.87;178.50;;;;;;;;;;4983017;28;20216;-49
2022/09/28 07:44:48;;;;;;;446.50;218.93;;;;;;;;;;4977524;28;20292;-49
2022/09/28 07:47:14;;;;;;;406.27;197.20;;;;;;;;;;4975548;28;20311;-49
2022/09/28 07:49:40;;;;;;;528.60;269.03;;;;;;;;;;4968627;28;20762;-49
2022/09/28 07:52:06;;;;;;;412.57;201.00;;;;;;;;;;4979266;28;20291;-49
2022/09/28 07:54:32;;;;;;;343.53;162.93;;;;;;;;;;4989028;28;20206;-49
2022/09/28 07:56:58;;;;;;;401.80;195.50;;;;;;;;;;4983529;28;20334;-50
2022/09/28 07:59:25;;;;;;;422.83;212.70;;;;;;;;;;4984664;28;20250;-49
2022/09/28 08:01:51;;;;;;;388.60;192.07;;;;;;;;;;4985759;28;20281;-49
2022/09/28 08:04:17;;;;;;;393.90;194.30;;;;;;;;;;4980312;28;20205;-49
2022/09/28 08:06:43;;;;;;;346.80;170.73;;;;;;;;;;4983340;28;20280;-49
2022/09/28 08:09:09;;;;;;;367.77;180.07;;;;;;;;;;4977591;28;20663;-51
2022/09/28 08:11:35;;;;;;;443.13;223.40;;;10.40;99.90;;;;;;4978436;28;20267;-51
2022/09/28 08:14:01;;;;;;;390.97;195.77;;;;;;;;;;4974835;28;20204;-51
2022/09/28 08:16:27;;;;;;;384.57;190.73;;;;;;;;;;4976776;28;20284;-51
2022/09/28 08:18:53;;;;;;;344.93;166.83;;;;;;;;;;4975682;28;20644;-51
2022/09/28 08:24:05;;;;;;;381.63;187.70;;;;;;;;;;4983489;28;20200;-49
2022/09/28 08:26:31;;;;;;;361.67;178.20;;;10.70;99.90;;;;;;4987284;28;20182;-49
2022/09/28 08:28:57;;;;;;;413.10;201.67;;;;;;;;;;4985943;28;20649;-49
2022/09/28 08:31:22;;;;;;;363.50;175.20;;;10.70;99.90;;;;;;4981344;28;20707;-49
2022/09/28 08:33:53;;;;;;;374.33;179.90;;;;;;;;;;4981667;28;20578;-49
2022/09/28 08:36:22;;;;;;;377.93;184.57;;;;;;;;;;4982902;28;20723;-49
2022/09/28 08:38:48;;;;;;;373.77;184.23;;;;;;;;;;4985908;28;20274;-49
2022/09/28 08:41:24;;;;;;;440.37;216.47;;;11.00;99.90;;;;;;4984210;28;20661;-49
2022/09/28 08:43:50;;;;;;;390.57;193.57;;;;;;;;;;4983664;28;20732;-49
2022/09/28 08:46:20;;;;;;;372.30;182.20;;;11.10;99.90;;;;;;4992600;28;20205;-49
2022/09/28 08:49:05;;;;;;;362.67;181.40;;;11.20;99.90;;;;;;4988169;28;20476;-49
2022/09/28 08:51:53;;;;;;;393.20;194.53;;;11.30;99.90;;;;;;4983987;28;20260;-49
2022/09/28 08:54:38;;;;;;;432.50;219.27;;;11.40;99.90;;;;;;4985198;28;20292;-49
2022/09/28 08:57:11;;;;;;;386.03;192.33;;;11.40;99.90;;;;;;4970187;28;20766;-49
2022/09/28 08:59:45;;;;;;;500.97;256.83;;;11.50;99.90;;;;;;4988173;28;20200;-49
2022/09/28 09:02:21;;;;;;;406.87;202.67;;;11.50;99.90;;;;;;4970380;28;20450;-49
2022/09/28 09:04:47;;;;;;;335.30;150.57;;;;;;;;;;5007657;23;20239;-55
2022/09/28 09:07:18;;;;;;;325.33;147.27;;;11.60;99.90;;;;;;5008437;28;20188;-55
2022/09/28 09:10:32;;;;;;;336.20;152.23;;;11.60;62.90;;;;;;5009505;28;20173;-56
2022/09/28 09:13:31;;;;;;;315.53;141.13;;;11.80;26.10;;;;;;4974486;28;20251;-55
2022/09/28 09:16:07;;;;;;;328.20;147.63;;;12.70;7.30;;;;;;4988938;28;20566;-56
2022/09/28 09:18:52;;;;;;;320.00;140.43;;;12.40;34.00;;;;;;4990130;28;20205;-56
2022/09/28 09:21:53;;;;;;;325.20;148.17;;;12.20;15.30;;;;;;4997116;28;20263;-55
2022/09/28 09:24:29;;;;;;;343.95;151.20;;;12.10;1.00;;;;;;5018256;28;20196;-56
2022/09/28 09:27:05;;;;;;;317.90;142.37;;;12.10;1.00;;;;;;4990246;28;20192;-55
2022/09/28 09:30:00;;;;;;;316.00;141.10;;;12.20;1.00;;;;;;5006090;28;20234;-55
2022/09/28 09:33:01;;;;;;;306.70;139.77;;;12.40;1.00;;;;;;5009241;28;20177;-55
2022/09/28 09:35:57;;;;;;;327.73;148.23;;;12.60;8.20;;;;;;5008917;28;20230;-55
2022/09/28 09:38:43;;;;;;;326.60;145.77;;;12.70;1.00;;;;;;5009242;28;20545;-56
2022/09/28 09:41:23;;;;;;;356.37;160.70;;;12.80;1.00;;;;;;5007095;28;20224;-56
2022/09/28 09:43:58;;;;;;;324.75;148.20;;;13.00;1.00;;;;;;5009441;28;20166;-56
2022/09/28 09:46:24;;;;;;;330.80;149.60;;;;;;;;;;4989313;28;20220;-56
2022/09/28 09:49:11;;;;;;;328.07;146.63;;;13.30;1.00;;;;;;4993361;28;20272;-56
2022/09/28 09:51:44;;;;;;;325.63;146.47;;;13.10;1.00;;;;;;5003679;28;20188;-56
2022/09/28 09:54:15;;;;;;;333.07;150.13;;;13.00;1.00;;;;;;5006699;28;20213;-56
2022/09/28 09:57:15;;;;;;;348.73;156.30;;;13.10;1.00;;;;;;5001340;28;20189;-56
2022/09/28 09:59:43;;;;;;;324.10;146.40;;;11.20;99.90;;;;;;5003742;28;20529;-56
2022/09/28 10:02:27;;;;;;;338.43;150.97;;;13.00;99.90;;;;;;5007644;28;20208;-55
2022/09/28 10:05:03;;;;;;;324.50;147.47;;;13.00;99.90;;;;;;5001647;28;20206;-55
2022/09/28 10:07:39;;;;;;;329.47;146.00;;;13.00;1.00;;;;;;5006991;28;20185;-56
2022/09/28 10:10:20;;;;;;;325.73;143.97;;;13.00;1.00;;;;;;5008384;28;20853;-56
2022/09/28 10:12:47;;;;;;;326.90;145.40;;;12.80;1.00;;;;;;5012501;28;20227;-56
2022/09/28 10:15:17;;;;;;;352.93;160.73;;;12.80;1.00;;;;;;5011800;28;20296;-56
2022/09/28 10:17:42;;;;;;;333.30;147.83;;;13.10;1.00;;;;;;5011337;28;20209;-56
2022/09/28 10:20:12;;;;;;;324.33;145.20;;;12.90;99.90;;;;;;5009166;28;20189;-56
2022/09/28 10:22:38;;;;;;;329.00;148.13;;;12.90;1.00;;;;;;5009620;28;20185;-56
2022/09/28 10:25:05;;;;;;;358.77;166.23;;;12.90;99.90;;;;;;5009741;28;20717;-56
2022/09/28 10:27:34;;;;;;;344.83;152.33;;;12.90;1.00;;;;;;5010985;28;20197;-56
2022/09/28 10:30:13;;;;;;;326.30;145.70;;;12.80;1.00;;;;;;5010959;28;20193;-55
2022/09/28 10:32:44;;;;;;;339.17;149.60;;;12.70;1.00;;;;;;5005359;28;20193;-56
2022/09/28 10:35:17;;;;;;;341.33;156.70;;;13.20;1.00;;;;;;5007051;28;20613;-56
2022/09/28 10:37:53;;;;;;;311.27;144.47;;;13.00;1.00;;;;;;5011248;28;20173;-56
2022/09/28 10:40:29;;;;;;;332.77;151.20;;;12.90;1.00;;;;;;5010288;28;20180;-56
2022/09/28 10:43:06;;;;;;;357.27;162.07;;;12.90;99.90;;;;;;5010817;28;20188;-55
2022/09/28 10:45:36;;;;;;;356.90;163.90;;;13.10;99.90;;;;;;5007794;28;20209;-56
2022/09/28 10:48:19;;;;;;;342.00;156.50;;;12.90;99.90;;;;;;5009504;28;20691;-56
2022/09/28 10:51:04;;;;;;;346.33;154.83;;;12.80;99.90;;;;;;5011909;28;20230;-56
2022/09/28 10:53:30;;;;;;;320.23;142.60;;;12.90;1.00;;;;;;5011682;28;20263;-55
2022/09/28 10:56:02;;;;;;;345.63;156.00;;;12.70;99.90;;;;;;5012282;28;20297;-56
2022/09/28 10:58:32;;;;;;;334.00;148.53;;;12.60;99.90;;;;;;5011265;28;20317;-56
2022/09/28 11:01:01;;;;;;;334.43;148.63;;;12.60;27.90;;;;;;5007795;28;20231;-55
2022/09/28 11:03:28;;;;;;;333.13;148.57;;;11.40;1.00;;;;;;5010462;28;20740;-56
2022/09/28 11:05:59;;;;;;;346.67;151.00;;;12.70;99.90;;;;;;5012649;28;20735;-56
2022/09/28 11:08:29;;;;;;;318.40;142.83;;;13.00;1.00;;;;;;5010442;28;20680;-56
2022/09/28 11:11:10;;;;;;;334.30;144.70;;;12.80;99.90;;;;;;5011578;28;20664;-56
2022/09/28 11:13:47;;;;;;;323.90;142.03;;;12.70;99.90;;;;;;4992686;28;20181;-56
2022/09/28 11:16:22;;;;;;;328.07;144.63;;;12.80;99.90;;;;;;5011410;28;20216;-56
2022/09/28 11:18:48;;;;;;;316.00;141.47;;;;;;;;;;5019748;28;20180;-56
2022/09/28 11:21:22;;;;;;;347.50;154.43;;;12.70;1.00;;;;;;5004900;28;20239;-56
2022/09/28 11:24:06;;;;;;;347.77;154.90;;;12.80;95.10;;;;;;5011168;28;20255;-55
2022/09/28 11:26:56;;;;;;;310.13;141.03;;;12.90;99.90;;;;;;5006775;28;20212;-56
2022/09/28 11:29:37;;;;;;;322.30;143.60;;;12.70;99.90;;;;;;5011204;28;20181;-56
2022/09/28 11:32:04;;;;;;;333.40;146.27;;;12.80;99.90;;;;;;5012252;28;20181;-56
2022/09/28 11:34:36;;;;;;;321.63;141.27;;;12.80;1.00;;;;;;5011056;28;20788;-56
2022/09/28 11:37:30;;;;;;;328.23;147.23;;;12.60;1.00;;;;;;5009553;28;20668;-55
2022/09/28 11:40:18;;;;;;;317.77;142.73;;;12.50;1.00;;;;;;5006284;28;20173;-56
2022/09/28 11:43:06;;;;;;;304.90;137.47;;;12.50;1.00;;;;;;5010922;28;20248;-56
2022/09/28 11:45:47;;;;;;;341.83;155.70;;;12.40;1.00;;;;;;5009682;28;20197;-55
2022/09/28 11:48:17;;;;;;;336.00;150.73;;;12.50;1.00;;;;;;5005133;28;20251;-56
2022/09/28 11:50:53;;;;;;;332.57;150.43;;;12.50;1.00;;;;;;5004668;28;20636;-56
2022/09/28 11:53:26;;;;;;;346.90;156.90;;;12.50;1.00;;;;;;5008897;28;20315;-55
2022/09/28 11:56:01;;;;;;;328.97;148.83;;;12.40;1.00;;;;;;5005015;28;20193;-56
2022/09/28 11:58:33;;;;;;;346.67;155.37;;;12.30;1.00;;;;;;5006643;28;20659;-56
2022/09/28 12:01:11;;;;;;;332.00;149.73;;;12.60;1.00;;;;;;5009209;28;20185;-55
2022/09/28 12:03:45;;;;;;;334.90;150.20;;;12.50;1.00;;;;;;5007870;28;20187;-55
2022/09/28 12:06:18;;;;;;;327.83;148.47;;;12.50;1.00;;;;;;5006664;28;20200;-55
2022/09/28 12:08:55;;;;;;;325.73;146.87;;;12.50;1.00;;;;;;5005055;28;20247;-56
2022/09/28 12:11:25;;;;;;;339.33;152.70;;;12.40;1.00;;;;;;5008668;28;20768;-55
2022/09/28 12:13:54;;;;;;;308.73;140.10;;;12.50;1.00;;;;;;5008911;28;20196;-56
2022/09/28 12:16:26;;;;;;;319.30;145.13;;;12.50;1.00;;;;;;5007214;28;20205;-56
2022/09/28 12:19:04;;;;;;;352.23;153.63;;;12.50;1.00;;;;;;5010012;28;20181;-55
2022/09/28 12:21:53;;;;;;;339.13;149.70;;;12.60;1.00;;;;;;5002481;28;20185;-56
2022/09/28 12:24:41;;;;;;;332.50;145.87;;;12.60;1.00;;;;;;5008274;28;20215;-56
2022/09/28 12:27:15;;;;;;;327.13;143.13;;;12.80;1.00;;;;;;5009352;28;20188;-56
2022/09/28 12:29:52;;;;;;;316.63;141.27;;;12.70;1.00;;;;;;5004738;28;20176;-55
2022/09/28 12:32:29;;;;;;;328.37;146.33;;;12.70;1.00;;;;;;5010472;28;20184;-56
2022/09/28 12:34:56;;;;;;;307.40;140.47;;;12.70;1.00;;;;;;5011359;28;20197;-56
2022/09/28 12:37:55;;;;;;;322.87;143.87;;;12.70;1.00;;;;;;5007381;28;20184;-55
2022/09/28 12:40:37;;;;;;;321.30;144.70;;;11.00;1.00;;;;;;5009893;28;20185;-56
2022/09/28 12:43:03;;;;;;;308.10;140.23;;;;;;;;;;5010318;28;20235;-56
2022/09/28 12:45:29;;;;;;;325.30;146.30;;;;;;;;;;5007702;28;20608;-56
2022/09/28 12:48:14;;;;;;;323.10;144.07;;;12.60;1.00;;;;;;5010284;28;20743;-55
2022/09/28 12:50:53;;;;;;;305.53;139.17;;;12.60;1.00;;;;;;5005079;28;20508;-56
2022/09/28 12:53:37;;;;;;;332.57;149.07;;;12.70;1.00;;;;;;4995075;28;20188;-55
2022/09/28 12:56:10;;;;;;;309.23;140.83;;;12.50;1.00;;;;;;5006946;28;20203;-55
2022/09/28 12:59:02;;;;;;;317.57;144.90;;;12.50;1.00;;;;;;5010356;28;20177;-56
2022/09/28 13:01:55;;;;;;;311.20;141.67;;;12.60;1.00;;;;;;5003062;28;20276;-56
2022/09/28 13:04:44;;;;;;;308.37;140.33;;;12.40;1.00;;;;;;5009880;28;20798;-56
2022/09/28 13:07:10;;;;;;;325.97;148.90;;;;;;;;;;5009232;28;20184;-56
2022/09/28 13:10:03;;;;;;;332.83;150.47;;;12.30;99.90;;;;;;5009827;28;20187;-55
2022/09/28 13:12:55;;;;;;;321.87;141.10;;;12.40;99.90;;;;;;5010496;28;20680;-56
2022/09/28 13:15:43;;;;;;;312.47;138.40;;;12.20;1.00;;;;;;5007752;28;20235;-56
2022/09/28 13:18:37;;;;;;;325.97;143.87;;;12.10;1.00;;;;;;5010008;28;20384;-55
2022/09/28 13:21:15;;;;;;;339.13;148.83;;;12.10;1.00;;;;;;5000930;28;20197;-56
2022/09/28 13:23:43;;;;;;;338.07;151.03;;;12.10;1.00;;;;;;5003435;28;20200;-56
2022/09/28 13:26:19;;;;;;;288.97;131.07;;;12.20;1.00;;;;;;5009177;28;20287;-56
2022/09/28 13:28:46;;;;;;;331.13;147.03;;;12.30;1.00;;;;;;5007084;28;20215;-56
2022/09/28 13:31:21;;;;;;;349.07;154.73;;;12.30;15.50;;;;;;5008399;28;20264;-56
2022/09/28 13:33:49;;;;;;;328.10;146.07;;;12.20;1.00;;;;;;4998524;28;20237;-56
2022/09/28 13:36:26;;;;;;;322.37;141.20;;;12.40;23.30;;;;;;5008020;28;20200;-56
2022/09/28 13:38:54;;;;;;;343.97;151.03;;;12.40;1.00;;;;;;5009451;28;20280;-55
2022/09/28 13:41:36;;;;;;;327.20;143.73;;;12.50;24.40;;;;;;5008081;28;20247;-55
2022/09/28 13:44:22;;;;;;;318.93;139.77;;;12.30;17.60;;;;;;5009612;28;20169;-55